SBKG/CPV METAR and TAF weather

Enter ICAO airport designator
Station Type Date Time Source
SBKG METAR 2020/04/10 19:00 UTC NOAA

SBKG 101900Z 07012KT 9999 SCT030 30/21 Q1013


Station Type Date Time Source
SBKG Decoded METAR 2020/04/10 19:00 UTC NOAA

Campina Grande, Brazil (SBKG) 07-13S 035-53W
Apr 10, 2020 - 03:00 PM EDT / 2020.04.10 1900 UTC
Wind: from the ENE (070 degrees) at 14 MPH (12 KT):0
Visibility: greater than 7 mile(s):0
Sky conditions: partly cloudy
Temperature: 86 F (30 C)
Dew Point: 69 F (21 C)
Relative Humidity: 58%
Pressure (altimeter): 29.91 in. Hg (1013 hPa)
ob: SBKG 101900Z 07012KT 9999 SCT030 30/21 Q1013
cycle: 19

Station Type Date Time Source
SBKG TAF 2020/04/10 12:36 UTC NOAA

TAF SBKG 100900Z 1012/1024 10009KT 9999 SCT020 TN27/1012Z TX32/1018Z
BECMG 1020/1022 06008KT CAVOK
RMK PDY

Example: see airport list